DAOO/ORN METAR and TAF weather

Enter ICAO airport designator
Station Type Date Time Source
DAOO METAR 2020/09/30 15:00 UTC NOAA

DAOO 301500Z 34011KT 9999 SCT026 25/19 Q1014


Station Type Date Time Source
DAOO Decoded METAR 2020/09/30 15:00 UTC NOAA

Oran / Es Senia, Algeria (DAOO) 35-38N 000-36W 90M
Sep 30, 2020 - 11:00 AM EDT / 2020.09.30 1500 UTC
Wind: from the NNW (340 degrees) at 13 MPH (11 KT):0
Visibility: greater than 7 mile(s):0
Sky conditions: partly cloudy
Temperature: 77 F (25 C)
Dew Point: 66 F (19 C)
Relative Humidity: 69%
Pressure (altimeter): 29.94 in. Hg (1014 hPa)
ob: DAOO 301500Z 34011KT 9999 SCT026 25/19 Q1014
cycle: 15

Station Type Date Time Source
DAOO TAF 2020/09/30 12:33 UTC NOAA

TAF DAOO 301100Z 3012/0112 VRB02KT 9999 FEW023 BKN026
BECMG 3013/3015 35012KT
BECMG 3018/3021 VRB02KT 8000 SCT013 PROB40
TEMPO 3022/0106 3000 BR BKN010

Example: see airport list